createdAt,value
2022-12-04T00:03:24.562Z,-0.53
2022-12-04T00:08:53.528Z,-0.54
2022-12-04T00:14:17.505Z,-0.51
2022-12-04T00:19:42.486Z,-0.53
2022-12-04T00:25:09.521Z,-0.49
2022-12-04T00:30:34.525Z,-0.47
2022-12-04T00:35:58.502Z,-0.37
2022-12-04T00:41:28.525Z,-0.32
2022-12-04T00:46:52.507Z,-0.32
2022-12-04T00:52:17.522Z,-0.34
2022-12-04T00:57:44.530Z,-0.34
2022-12-04T01:03:15.852Z,-0.29
2022-12-04T01:08:42.558Z,-0.22
2022-12-04T01:14:09.550Z,-0.25
2022-12-04T01:19:34.522Z,-0.25
2022-12-04T01:24:58.533Z,-0.25
2022-12-04T01:30:26.536Z,-0.26
2022-12-04T01:35:50.530Z,-0.29
2022-12-04T01:41:16.546Z,-0.32
2022-12-04T01:46:43.525Z,-0.29
2022-12-04T01:52:12.551Z,-0.29
2022-12-04T01:57:38.607Z,-0.28
2022-12-04T02:03:08.589Z,-0.32
2022-12-04T02:08:32.530Z,-0.36
2022-12-04T02:14:06.570Z,-0.37
2022-12-04T02:19:57.697Z,-0.37
2022-12-04T02:25:33.588Z,-0.32
2022-12-04T02:31:01.624Z,-0.29
2022-12-04T02:36:30.532Z,-0.33
2022-12-04T02:42:00.536Z,-0.27
2022-12-04T02:47:32.616Z,-0.32
2022-12-04T02:52:59.550Z,-0.33
2022-12-04T02:58:29.561Z,-0.30
2022-12-04T03:03:56.671Z,-0.24
2022-12-04T03:09:25.564Z,-0.27
2022-12-04T03:14:52.654Z,-0.28
2022-12-04T03:20:23.580Z,-0.26
2022-12-04T03:25:53.567Z,-0.31
2022-12-04T03:31:19.614Z,-0.29
2022-12-04T03:36:51.637Z,-0.24
2022-12-04T03:42:24.578Z,-0.20
2022-12-04T03:47:54.570Z,-0.16
2022-12-04T03:53:28.625Z,-0.21
2022-12-04T03:58:58.574Z,-0.15
2022-12-04T04:04:27.574Z,-0.11
2022-12-04T04:09:53.979Z,-0.06
2022-12-04T04:15:37.655Z,-0.02
2022-12-04T04:21:20.569Z,-0.03
2022-12-04T04:26:51.589Z,-0.02
2022-12-04T04:32:22.580Z,-0.10
2022-12-04T04:37:53.581Z,-0.17
2022-12-04T04:43:28.655Z,-0.25
2022-12-04T04:48:56.665Z,-0.24
2022-12-04T04:54:23.594Z,-0.29
2022-12-04T04:59:50.616Z,-0.30
2022-12-04T05:05:22.647Z,-0.33
2022-12-04T05:10:47.598Z,-0.34
2022-12-04T05:16:16.756Z,-0.36
2022-12-04T05:21:41.653Z,-0.39
2022-12-04T05:27:05.592Z,-0.39
2022-12-04T05:32:35.611Z,-0.39
2022-12-04T05:37:59.629Z,-0.40
2022-12-04T05:43:24.630Z,-0.40
2022-12-04T05:48:51.673Z,-0.39
2022-12-04T05:54:16.625Z,-0.41
2022-12-04T05:59:40.656Z,-0.40
2022-12-04T06:05:14.624Z,-0.38
2022-12-04T06:10:39.620Z,-0.38
2022-12-04T06:16:04.684Z,-0.37
2022-12-04T06:21:35.628Z,-0.36
2022-12-04T06:32:45.654Z,-0.37
2022-12-04T06:38:14.609Z,-0.36
2022-12-04T06:43:39.661Z,-0.37
2022-12-04T06:49:04.627Z,-0.38
2022-12-04T06:54:32.638Z,-0.37
2022-12-04T06:59:57.001Z,-0.36
2022-12-04T07:05:27.679Z,-0.36
2022-12-04T07:10:59.194Z,-0.35
2022-12-04T07:16:27.713Z,-0.37
2022-12-04T07:21:51.665Z,-0.35
2022-12-04T07:27:19.723Z,-0.38
2022-12-04T07:32:43.708Z,-0.35
2022-12-04T07:38:08.657Z,-0.35
2022-12-04T07:43:36.634Z,-0.33
2022-12-04T07:49:01.681Z,-0.33
2022-12-04T07:54:27.997Z,-0.30
2022-12-04T07:59:56.988Z,-0.25
2022-12-04T08:05:29.680Z,-0.24
2022-12-04T08:10:54.687Z,-0.20
2022-12-04T08:16:23.716Z,-0.18
2022-12-04T08:21:48.654Z,-0.15
2022-12-04T08:27:12.666Z,-0.13
2022-12-04T08:32:40.690Z,-0.10
2022-12-04T08:38:04.674Z,-0.08
2022-12-04T08:43:29.674Z,-0.08
2022-12-04T08:48:56.709Z,-0.03
2022-12-04T08:54:22.690Z,-0.02
2022-12-04T08:59:49.739Z,-0.02
2022-12-04T09:05:26.099Z,-0.04
2022-12-04T09:10:54.327Z,-0.07
2022-12-04T09:16:23.322Z,-0.07
2022-12-04T09:21:51.668Z,-0.07
2022-12-04T09:27:17.696Z,-0.05
2022-12-04T09:32:42.708Z,0.07
2022-12-04T09:38:09.713Z,0.08
2022-12-04T09:43:41.694Z,0.10
2022-12-04T09:49:06.735Z,0.04
2022-12-04T09:54:39.725Z,0.02
2022-12-04T10:00:07.724Z,-0.01
2022-12-04T10:05:44.701Z,0.03
2022-12-04T10:11:27.690Z,0.06
2022-12-04T10:17:16.742Z,0.12
2022-12-04T10:22:48.728Z,0.15
2022-12-04T10:28:32.760Z,0.16
2022-12-04T10:34:00.719Z,0.14
2022-12-04T10:39:31.729Z,0.20
2022-12-04T10:44:58.717Z,0.23
2022-12-04T10:50:26.833Z,0.27
2022-12-04T10:55:50.720Z,0.25
2022-12-04T11:01:21.768Z,0.27
2022-12-04T11:06:46.734Z,0.33
2022-12-04T11:12:17.739Z,0.32
2022-12-04T11:17:44.746Z,0.34
2022-12-04T11:23:09.730Z,0.35
2022-12-04T11:28:42.398Z,0.33
2022-12-04T11:34:13.760Z,0.28
2022-12-04T11:39:46.777Z,0.31
2022-12-04T11:45:31.930Z,0.30
2022-12-04T11:51:05.753Z,0.27
2022-12-04T11:56:36.755Z,0.23
2022-12-04T12:02:05.934Z,0.18
2022-12-04T12:08:00.701Z,0.17
2022-12-04T12:13:39.777Z,0.17
2022-12-04T12:19:19.828Z,0.18
2022-12-04T12:25:00.105Z,0.17
2022-12-04T12:30:31.724Z,0.19
2022-12-04T12:36:03.737Z,0.19
2022-12-04T12:41:35.756Z,0.16
2022-12-04T12:47:03.761Z,0.17
2022-12-04T12:52:34.780Z,0.15
2022-12-04T12:58:09.793Z,0.17
2022-12-04T13:03:43.780Z,0.11
2022-12-04T13:09:15.773Z,0.10
2022-12-04T13:14:48.632Z,0.03
2022-12-04T13:20:18.789Z,0.02
2022-12-04T13:26:04.798Z,-0.01
2022-12-04T13:31:40.823Z,-0.01
2022-12-04T13:37:16.785Z,0.03
2022-12-04T13:42:41.789Z,-0.01
2022-12-04T13:48:15.782Z,-0.01
2022-12-04T13:53:43.798Z,0.01
2022-12-04T13:59:15.788Z,0.00
2022-12-04T14:04:51.806Z,-0.04
2022-12-04T14:10:19.788Z,-0.04
2022-12-04T14:15:46.827Z,-0.05
2022-12-04T14:21:17.780Z,-0.05
2022-12-04T14:27:10.309Z,-0.06
2022-12-04T14:32:32.812Z,-0.09
2022-12-04T14:38:05.817Z,-0.07
2022-12-04T14:43:33.802Z,-0.11
2022-12-04T14:49:07.825Z,-0.11
2022-12-04T14:54:42.831Z,-0.15
2022-12-04T15:00:07.803Z,-0.18
2022-12-04T15:05:35.817Z,-0.18
2022-12-04T15:11:15.799Z,-0.18
2022-12-04T15:16:40.816Z,-0.21
2022-12-04T15:22:10.210Z,-0.22
2022-12-04T15:27:41.882Z,-0.22
2022-12-04T15:33:07.833Z,-0.23
2022-12-04T15:38:32.828Z,-0.23
2022-12-04T15:44:00.858Z,-0.24
2022-12-04T15:49:33.885Z,-0.23
2022-12-04T15:55:03.861Z,-0.21
2022-12-04T16:00:42.014Z,-0.20
2022-12-04T16:06:23.837Z,-0.20
2022-12-04T16:11:51.841Z,-0.18
2022-12-04T16:17:22.844Z,-0.17
2022-12-04T16:22:47.857Z,-0.19
2022-12-04T16:28:13.843Z,-0.19
2022-12-04T16:33:40.884Z,-0.21
2022-12-04T16:39:05.851Z,-0.18
2022-12-04T16:44:31.871Z,-0.17
2022-12-04T16:50:00.872Z,-0.15
2022-12-04T16:55:33.840Z,-0.14
2022-12-04T17:01:01.875Z,-0.14
2022-12-04T17:06:28.853Z,-0.12
2022-12-04T17:11:54.881Z,-0.16
2022-12-04T17:17:18.901Z,-0.13
2022-12-04T17:22:46.870Z,-0.13
2022-12-04T17:28:10.851Z,-0.10
2022-12-04T17:33:35.914Z,-0.09
2022-12-04T17:39:02.863Z,-0.09
2022-12-04T17:44:27.896Z,-0.08
2022-12-04T17:49:51.910Z,-0.05
2022-12-04T17:55:19.879Z,-0.07
2022-12-04T18:00:43.965Z,-0.08
2022-12-04T18:06:08.879Z,-0.10
2022-12-04T18:11:37.912Z,-0.11
2022-12-04T18:17:05.886Z,-0.13
2022-12-04T18:22:29.902Z,-0.13
2022-12-04T18:27:57.874Z,-0.14
2022-12-04T18:33:21.908Z,-0.14
2022-12-04T18:38:46.924Z,-0.20
2022-12-04T18:44:13.916Z,-0.18
2022-12-04T18:49:38.915Z,-0.20
2022-12-04T18:55:02.906Z,-0.19
2022-12-04T19:00:30.885Z,-0.20
2022-12-04T19:06:03.975Z,-0.20
2022-12-04T19:11:28.900Z,-0.18
2022-12-04T19:16:55.972Z,-0.15
2022-12-04T19:22:20.912Z,-0.02
2022-12-04T19:27:44.930Z,0.09
2022-12-04T19:33:12.933Z,0.17
2022-12-04T19:38:36.920Z,0.19
2022-12-04T19:44:19.956Z,0.17
2022-12-04T19:49:52.926Z,0.12
2022-12-04T19:55:17.937Z,0.13
2022-12-04T20:00:41.960Z,0.11
2022-12-04T20:06:19.934Z,0.09
2022-12-04T20:11:46.942Z,0.07
2022-12-04T20:17:11.987Z,0.06
2022-12-04T20:22:41.922Z,0.08
2022-12-04T20:28:09.022Z,0.07
2022-12-04T20:33:38.026Z,0.06
2022-12-04T20:39:07.963Z,0.07
2022-12-04T20:44:32.964Z,0.06
2022-12-04T20:49:57.160Z,0.06
2022-12-04T20:55:24.961Z,0.07
2022-12-04T21:00:48.942Z,0.08
2022-12-04T21:06:20.954Z,0.06
2022-12-04T21:11:50.966Z,0.08
2022-12-04T21:17:16.937Z,0.12
2022-12-04T21:22:41.978Z,0.12
2022-12-04T21:28:08.984Z,0.13
2022-12-04T21:33:35.960Z,0.14
2022-12-04T21:38:59.970Z,0.18
2022-12-04T21:44:29.965Z,0.19
2022-12-04T21:49:55.003Z,0.20
2022-12-04T21:55:19.967Z,0.19
2022-12-04T22:00:46.985Z,0.21
2022-12-04T22:06:12.189Z,0.20
2022-12-04T22:11:36.981Z,0.19
2022-12-04T22:17:05.976Z,0.18
2022-12-04T22:22:29.958Z,0.18
2022-12-04T22:27:54.990Z,0.19
2022-12-04T22:33:21.964Z,0.20
2022-12-04T22:39:08.040Z,0.22
2022-12-04T22:44:32.028Z,0.22
2022-12-04T22:50:00.157Z,0.25
2022-12-04T22:55:25.180Z,0.24
2022-12-04T23:00:50.982Z,0.27
2022-12-04T23:06:19.021Z,0.26
2022-12-04T23:11:45.022Z,0.26
2022-12-04T23:17:09.113Z,0.26
2022-12-04T23:22:37.021Z,0.26
2022-12-04T23:28:01.011Z,0.23
2022-12-04T23:33:26.041Z,0.24
2022-12-04T23:38:55.014Z,0.24
2022-12-04T23:44:20.157Z,0.25
2022-12-04T23:49:43.996Z,0.24
2022-12-04T23:55:12.005Z,0.22
